Time;durP1;ratioP1;P1;durP2;ratioP2;P2;SDS_P1;SDS_P2;PMS_P1;PMS_P2;Temp;Humidity;BMP_temperature;BMP_pressure;BME280_temperature;BME280_humidity;BME280_pressure;Samples;Min_cycle;Max_cycle;Signal;HPM_P1;HPM_P2
2021/11/22 00:01:59;;;;;;;;;16.50;14.50;;;;;10.89;72.01;101001.81;146619;606;46010;-82
2021/11/22 00:04:51;;;;;;;;;17.75;14.75;;;;;10.87;71.38;101000.81;146616;569;46016;-77
2021/11/22 00:07:44;;;;;;;;;22.50;19.75;;;;;10.85;70.71;101005.94;146617;580;46020;-75
2021/11/22 00:10:36;;;;;;;;;34.00;28.00;;;;;10.83;71.57;101011.84;146620;592;46013;-75
2021/11/22 00:13:28;;;;;;;;;27.00;25.75;;;;;10.80;71.30;101020.34;146615;611;46020;-76
2021/11/22 00:16:20;;;;;;;;;33.25;29.00;;;;;10.76;71.11;101014.91;146613;591;47015;-74
2021/11/22 00:19:13;;;;;;;;;29.25;26.75;;;;;10.75;71.33;101011.44;146615;606;46020;-75
2021/11/22 00:22:06;;;;;;;;;25.75;20.25;;;;;10.69;71.48;101005.91;146612;588;46012;-74
2021/11/22 00:24:58;;;;;;;;;29.00;26.50;;;;;10.68;72.35;101000.63;146616;594;46021;-73
2021/11/22 00:27:51;;;;;;;;;20.75;20.75;;;;;10.60;71.98;101001.09;146613;607;46012;-72
2021/11/22 00:30:44;;;;;;;;;18.25;14.00;;;;;10.58;71.79;101001.81;146617;615;45020;-72
2021/11/22 00:33:36;;;;;;;;;19.25;16.25;;;;;10.60;72.17;100995.91;146612;626;46014;-72
2021/11/22 00:36:28;;;;;;;;;13.00;11.50;;;;;10.64;72.37;101000.44;146618;672;46020;-72
2021/11/22 00:39:20;;;;;;;;;13.75;12.50;;;;;10.66;72.07;100991.88;146615;620;46012;-72
2021/11/22 00:42:13;;;;;;;;;23.00;18.75;;;;;10.68;72.61;100993.72;146617;581;46020;-72
2021/11/22 00:45:06;;;;;;;;;34.50;29.50;;;;;10.71;72.41;100987.81;146611;607;46016;-74
2021/11/22 00:47:59;;;;;;;;;18.75;16.25;;;;;10.76;72.33;100994.16;146614;605;46020;-74
2021/11/22 00:50:55;;;;;;;;;12.50;11.50;;;;;10.76;71.98;100991.56;146615;571;46016;-74
2021/11/22 00:53:48;;;;;;;;;17.00;15.25;;;;;10.72;71.86;100993.13;146617;571;46020;-75
2021/11/22 00:56:40;;;;;;;;;16.00;15.00;;;;;10.69;72.50;100990.34;146616;607;46014;-75
2021/11/22 00:59:32;;;;;;;;;17.25;14.75;;;;;10.68;71.68;100990.25;146617;586;46010;-73
2021/11/22 01:02:25;;;;;;;;;11.75;11.50;;;;;10.58;71.87;100989.75;146613;688;46025;-74
2021/11/22 01:05:17;;;;;;;;;15.25;14.25;;;;;10.46;72.81;100980.41;146621;619;45020;-74
2021/11/22 01:08:10;;;;;;;;;17.00;15.25;;;;;10.36;73.43;100976.41;146613;595;46911;-74
2021/11/22 01:11:02;;;;;;;;;14.00;13.50;;;;;10.31;72.69;100980.41;146617;608;46021;-74
2021/11/22 01:13:55;;;;;;;;;14.25;12.00;;;;;10.29;72.96;100982.94;146617;583;46016;-74
2021/11/22 01:16:47;;;;;;;;;18.75;17.50;;;;;10.29;74.17;100977.75;146620;585;46011;-75
2021/11/22 01:19:39;;;;;;;;;17.50;14.75;;;;;10.26;73.60;100974.06;146613;601;46012;-75
2021/11/22 01:22:32;;;;;;;;;18.75;15.50;;;;;10.23;74.07;100979.09;146621;583;46020;-74
2021/11/22 01:25:24;;;;;;;;;18.00;15.25;;;;;10.23;74.75;100972.19;146615;565;46016;-73
2021/11/22 01:28:17;;;;;;;;;18.75;14.50;;;;;10.22;73.56;100973.00;146621;649;46010;-72
2021/11/22 01:31:09;;;;;;;;;16.25;13.25;;;;;10.22;73.29;100978.19;146618;583;47013;-74
2021/11/22 01:34:02;;;;;;;;;16.25;15.25;;;;;10.24;72.64;100983.44;146619;668;46020;-74
2021/11/22 01:36:54;;;;;;;;;17.25;15.25;;;;;10.30;72.90;100983.84;146611;625;47016;-80
2021/11/22 01:39:46;;;;;;;;;14.25;14.00;;;;;10.33;72.94;100986.59;146617;571;46020;-78
2021/11/22 01:42:41;;;;;;;;;19.75;17.25;;;;;10.28;71.99;100983.75;146616;590;46016;-82
2021/11/22 01:45:33;;;;;;;;;22.75;22.75;;;;;10.25;72.11;100991.31;146619;596;46021;-79
2021/11/22 01:48:26;;;;;;;;;24.25;23.50;;;;;10.25;72.49;100987.81;146612;624;47012;-77
2021/11/22 01:51:19;;;;;;;;;31.00;27.00;;;;;10.23;73.86;100989.44;146613;577;46047;-75
2021/11/22 01:54:12;;;;;;;;;27.50;24.25;;;;;10.15;73.39;100987.28;146617;612;46016;-79
2021/11/22 01:57:04;;;;;;;;;28.25;25.25;;;;;10.12;73.35;100986.22;146616;571;46010;-76
2021/11/22 01:59:56;;;;;;;;;27.50;22.50;;;;;10.15;74.41;100994.19;146611;571;46015;-76
2021/11/22 02:02:49;;;;;;;;;17.00;16.50;;;;;10.10;73.55;100986.16;146619;588;46020;-73
2021/11/22 02:05:41;;;;;;;;;21.25;15.00;;;;;10.04;74.37;100991.00;146616;566;46012;-76
2021/11/22 02:08:33;;;;;;;;;13.75;12.75;;;;;9.99;74.99;100987.22;146620;657;45021;-75
2021/11/22 02:11:26;;;;;;;;;15.75;14.25;;;;;9.92;75.18;100973.03;146615;604;47012;-76
2021/11/22 02:14:18;;;;;;;;;16.00;14.50;;;;;9.90;75.79;100974.62;146615;566;46010;-77
2021/11/22 02:17:11;;;;;;;;;12.75;12.75;;;;;9.91;75.75;100979.03;146615;624;46012;-73
2021/11/22 02:20:04;;;;;;;;;14.50;13.25;;;;;9.94;75.87;100973.13;146613;602;47010;-76
2021/11/22 02:23:00;;;;;;;;;14.00;10.00;;;;;10.00;76.08;100964.81;146614;580;46013;-73
2021/11/22 02:25:53;;;;;;;;;12.00;11.00;;;;;10.05;75.69;100966.84;146618;571;46020;-74
2021/11/22 02:28:45;;;;;;;;;12.75;12.75;;;;;10.07;74.93;100970.44;146613;589;46012;-72
2021/11/22 02:31:38;;;;;;;;;13.25;10.50;;;;;10.11;75.31;100967.22;146615;639;46020;-74
2021/11/22 02:34:31;;;;;;;;;10.00;10.00;;;;;9.11;75.02;100794.03;146615;588;46016;-75
2021/11/22 02:37:23;;;;;;;;;8.75;8.00;;;;;10.11;74.88;100963.72;146616;629;46020;-75
2021/11/22 02:40:16;;;;;;;;;12.50;11.50;;;;;10.10;74.65;100959.34;146619;578;46012;-75
2021/11/22 02:43:08;;;;;;;;;9.50;7.25;;;;;10.08;74.31;100958.38;146614;626;46010;-75
2021/11/22 02:46:00;;;;;;;;;8.50;8.00;;;;;10.07;74.71;100952.31;146619;610;46017;-75
2021/11/22 02:48:52;;;;;;;;;8.50;8.50;;;;;10.07;75.45;100957.47;146629;607;45020;-75
2021/11/22 02:51:47;;;;;;;;;11.00;9.00;;;;;10.09;74.64;100947.19;146619;612;47012;-75
2021/11/22 02:54:39;;;;;;;;;11.25;9.25;;;;;10.12;74.97;100944.78;146625;558;45021;-80
2021/11/22 02:57:31;;;;;;;;;12.00;9.00;;;;;10.17;74.55;100940.75;146620;579;46012;-77
2021/11/22 03:00:27;;;;;;;;;10.00;9.25;;;;;10.21;74.11;100945.28;146625;564;46010;-79
2021/11/22 03:03:19;;;;;;;;;11.25;11.25;;;;;10.25;74.61;100944.69;146618;565;46035;-73
2021/11/22 03:06:14;;;;;;;;;14.75;11.75;;;;;10.36;74.39;100955.66;146612;604;46021;-73
2021/11/22 03:09:06;;;;;;;;;15.75;10.75;;;;;10.40;74.05;100955.94;146614;575;46016;-72
2021/11/22 03:12:04;;;;;;;;;16.75;16.00;;;;;9.42;74.68;100783.72;146615;566;46010;-69
2021/11/22 03:14:56;;;;;;;;;14.75;13.00;;;;;10.35;74.42;100947.00;146616;586;46017;-74
2021/11/22 03:17:49;;;;;;;;;19.75;17.00;;;;;10.31;73.50;100949.31;146617;600;47020;-78
2021/11/22 03:20:41;;;;;;;;;26.00;20.25;;;;;10.28;73.37;100955.25;146616;588;46015;-78
2021/11/22 03:23:35;;;;;;;;;24.25;21.75;;;;;10.26;73.29;100953.34;146615;600;46021;-79
2021/11/22 03:26:27;;;;;;;;;20.50;18.00;;;;;10.24;73.25;100960.13;146613;667;46012;-79
2021/11/22 03:29:20;;;;;;;;;20.75;18.25;;;;;10.22;73.63;100965.25;146620;596;45027;-80
2021/11/22 03:32:12;;;;;;;;;23.00;20.50;;;;;10.21;73.34;100971.19;146614;571;46016;-81
2021/11/22 03:35:05;;;;;;;;;27.25;22.00;;;;;10.21;73.69;100976.37;146616;588;46015;-78
2021/11/22 03:37:58;;;;;;;;;17.75;15.25;;;;;10.21;73.25;100978.97;146620;578;45017;-77
2021/11/22 03:40:52;;;;;;;;;25.25;20.00;;;;;10.16;72.97;100989.09;146620;669;46010;-79
2021/11/22 03:47:04;;;;;;;;;23.25;21.50;;;;;10.09;73.56;100994.75;146624;575;46012;-79
2021/11/22 03:49:56;;;;;;;;;28.75;25.00;;;;;10.08;73.63;100990.34;146617;577;46012;-79
2021/11/22 03:52:49;;;;;;;;;26.50;24.00;;;;;10.04;74.35;100990.09;146619;579;45021;-78
2021/11/22 03:55:41;;;;;;;;;23.75;20.75;;;;;9.99;74.37;100982.03;146616;602;46012;-75
2021/11/22 03:58:33;;;;;;;;;22.00;20.00;;;;;9.93;74.05;100979.09;146621;577;46020;-74
2021/11/22 04:01:26;;;;;;;;;27.25;24.75;;;;;9.88;73.83;100981.44;146616;648;45016;-75
2021/11/22 04:04:18;;;;;;;;;27.50;22.50;;;;;9.85;75.03;100994.22;146619;628;46010;-74
2021/11/22 04:07:10;;;;;;;;;29.00;23.00;;;;;8.70;74.96;100810.56;146613;620;46025;-74
2021/11/22 04:10:02;;;;;;;;;23.75;21.75;;;;;9.77;74.97;101003.22;146616;640;46020;-73
2021/11/22 04:12:55;;;;;;;;;27.50;20.75;;;;;9.73;74.75;100990.00;146618;582;46016;-74
2021/11/22 04:15:47;;;;;;;;;23.75;22.00;;;;;9.69;75.32;100991.53;146620;581;45020;-72
2021/11/22 04:18:40;;;;;;;;;22.75;20.50;;;;;9.66;75.09;100989.66;146615;653;46016;-75
2021/11/22 04:21:32;;;;;;;;;20.00;19.25;;;;;9.65;74.95;100987.84;146616;595;46021;-74
2021/11/22 04:24:24;;;;;;;;;25.25;20.25;;;;;9.69;75.24;100988.94;146618;581;46012;-73
2021/11/22 04:27:17;;;;;;;;;21.50;20.00;;;;;9.69;76.16;100984.66;146614;626;46020;-73
2021/11/22 04:30:11;;;;;;;;;22.00;18.00;;;;;9.69;74.81;100984.66;146612;601;47911;-73
2021/11/22 04:33:04;;;;;;;;;22.50;19.75;;;;;9.69;75.79;100978.59;146613;649;46010;-75
2021/11/22 04:35:56;;;;;;;;;20.25;17.25;;;;;9.66;75.70;100984.47;146617;587;46012;-74
2021/11/22 04:38:49;;;;;;;;;20.25;17.25;;;;;9.59;75.43;100978.81;146620;569;45030;-76
2021/11/22 04:41:42;;;;;;;;;18.25;15.00;;;;;9.55;75.16;100984.62;146618;585;47012;-78
2021/11/22 04:44:34;;;;;;;;;20.50;16.25;;;;;9.53;75.00;100994.00;146617;598;46010;-77
2021/11/22 04:47:26;;;;;;;;;19.00;15.50;;;;;9.59;75.21;101008.19;146611;591;46911;-77
2021/11/22 04:50:20;;;;;;;;;27.75;26.00;;;;;9.64;75.16;101001.59;146617;642;46020;-76
2021/11/22 04:53:12;;;;;;;;;23.00;22.00;;;;;9.63;74.88;101009.28;146612;650;46016;-77
2021/11/22 04:56:04;;;;;;;;;22.50;21.50;;;;;9.64;75.10;101006.78;146615;590;46010;-75
2021/11/22 04:58:57;;;;;;;;;28.25;22.00;;;;;9.62;74.30;101015.25;146619;578;46012;-70
2021/11/22 05:01:48;;;;;;;;;26.75;24.25;;;;;9.62;74.34;101030.78;146615;599;47020;-76
2021/11/22 05:04:41;;;;;;;;;45.25;35.75;;;;;9.65;74.33;101037.03;146615;598;46016;-78
2021/11/22 05:07:33;;;;;;;;;40.00;31.50;;;;;9.66;74.37;101036.25;146616;640;46050;-75
2021/11/22 05:10:29;;;;;;;;;44.50;34.50;;;;;9.70;75.61;101038.22;146614;602;46016;-79
2021/11/22 05:13:22;;;;;;;;;44.00;34.00;;;;;9.71;75.55;101046.87;146616;588;45021;-76
2021/11/22 05:16:15;;;;;;;;;46.00;36.50;;;;;9.73;76.04;101057.34;146612;563;46016;-76
2021/11/22 05:19:07;;;;;;;;;39.75;34.50;;;;;9.75;76.57;101051.47;146618;565;45021;-77
2021/11/22 05:21:59;;;;;;;;;42.50;34.25;;;;;9.78;76.13;101058.50;146615;707;45016;-74
2021/11/22 05:24:55;;;;;;;;;42.00;34.25;;;;;9.79;76.30;101057.72;146616;572;46010;-76
2021/11/22 05:27:47;;;;;;;;;38.50;33.25;;;;;9.80;76.24;101055.19;146615;613;46012;-78
2021/11/22 05:30:39;;;;;;;;;43.75;34.25;;;;;9.85;77.47;101058.06;146615;580;46010;-77
2021/11/22 05:33:32;;;;;;;;;35.75;31.50;;;;;9.86;76.44;101055.56;146613;610;46016;-74
2021/11/22 05:36:25;;;;;;;;;39.00;32.75;;;;;9.93;76.24;101059.41;146618;571;46020;-74
2021/11/22 05:39:17;;;;;;;;;45.00;36.00;;;;;10.00;75.76;101061.56;146614;690;46014;-74
2021/11/22 05:42:09;;;;;;;;;42.25;35.25;;;;;10.09;75.43;101056.00;146618;599;45020;-75
2021/11/22 05:45:02;;;;;;;;;45.00;34.00;;;;;10.20;75.78;101056.66;146614;740;46012;-75
2021/11/22 05:47:54;;;;;;;;;36.00;32.50;;;;;10.29;75.38;101058.09;146617;571;46018;-72
2021/11/22 05:50:48;;;;;;;;;47.25;35.50;;;;;10.36;75.76;101056.75;146613;564;45912;-75
2021/11/22 05:53:42;;;;;;;;;36.25;31.25;;;;;10.42;76.11;101062.28;146614;571;46010;-72
2021/11/22 05:56:34;;;;;;;;;39.25;33.25;;;;;10.64;76.43;101067.87;146614;647;46013;-72
2021/11/22 05:59:26;;;;;;;;;40.25;31.75;;;;;11.30;75.44;101073.22;146611;579;46010;-72
2021/11/22 06:02:18;;;;;;;;;34.75;31.50;;;;;12.22;74.06;101059.84;146611;704;47012;-73
2021/11/22 06:05:11;;;;;;;;;42.75;34.75;;;;;12.73;71.07;101059.69;146620;570;46010;-72
2021/11/22 06:08:03;;;;;;;;;39.25;32.75;;;;;12.85;69.71;101063.75;146612;587;46016;-73
2021/11/22 06:10:56;;;;;;;;;38.00;32.50;;;;;12.79;69.53;101052.19;146617;582;46011;-81
2021/11/22 06:13:48;;;;;;;;;44.25;34.50;;;;;12.74;69.35;101064.06;146612;646;46012;-73
2021/11/22 06:16:41;;;;;;;;;31.25;30.50;;;;;12.64;70.19;101063.63;146616;565;45029;-72
2021/11/22 06:19:33;;;;;;;;;28.00;27.25;;;;;12.62;70.92;101060.06;146611;589;46017;-72
2021/11/22 06:22:25;;;;;;;;;38.00;33.75;;;;;12.95;71.00;101062.47;146615;610;46020;-73
2021/11/22 06:25:17;;;;;;;;;32.00;30.00;;;;;13.35;69.33;101064.34;146611;625;46017;-72
2021/11/22 06:28:10;;;;;;;;;44.50;32.75;;;;;13.53;68.84;101061.69;146613;585;45021;-72
2021/11/22 06:31:02;;;;;;;;;42.75;36.00;;;;;13.63;68.86;101080.41;146611;620;46911;-74
2021/11/22 06:33:54;;;;;;;;;45.75;37.00;;;;;13.77;67.81;101061.88;146619;581;45024;-74
2021/11/22 06:36:47;;;;;;;;;42.50;34.25;;;;;13.76;67.72;101058.38;146610;572;46012;-73
2021/11/22 06:39:41;;;;;;;;;42.25;35.50;;;;;13.65;67.94;101048.34;146616;605;45028;-72
2021/11/22 06:42:33;;;;;;;;;51.50;41.50;;;;;13.50;68.83;101040.72;146615;564;45912;-73
2021/11/22 06:45:25;;;;;;;;;42.25;33.75;;;;;13.52;69.44;101039.06;146619;598;45022;-71
2021/11/22 06:48:18;;;;;;;;;36.25;32.25;;;;;14.03;70.03;101045.66;146612;565;46017;-74
2021/11/22 06:51:10;;;;;;;;;59.25;44.75;;;;;14.36;68.18;100971.31;146614;579;46010;-87
2021/11/22 06:54:02;;;;;;;;;64.25;50.75;;;;;15.52;66.35;101041.06;146611;595;46016;-82
2021/11/22 06:56:54;;;;;;;;;69.25;54.50;;;;;16.26;63.73;101039.31;146615;572;46010;-86
2021/11/22 06:59:47;;;;;;;;;68.50;52.25;;;;;16.53;62.13;101052.41;146614;613;46016;-89
2021/11/22 07:02:39;;;;;;;;;54.75;43.75;;;;;16.27;61.32;101053.28;146615;588;46010;-73
2021/11/22 07:05:32;;;;;;;;;54.00;43.75;;;;;15.94;62.19;101056.53;146614;564;46016;-73
2021/11/22 07:08:25;;;;;;;;;56.50;43.50;;;;;15.70;64.79;101052.22;146616;577;46020;-75
2021/11/22 07:11:17;;;;;;;;;64.25;50.50;;;;;15.73;63.51;101061.00;146612;592;46014;-76
2021/11/22 07:14:09;;;;;;;;;59.75;48.00;;;;;15.75;64.51;101067.19;146616;573;46020;-74
2021/11/22 07:17:01;;;;;;;;;58.00;46.75;;;;;15.94;64.32;101067.87;146612;591;46022;-75
2021/11/22 07:19:53;;;;;;;;;59.75;45.50;;;;;16.32;63.87;101070.94;146615;588;46021;-76
2021/11/22 07:22:45;;;;;;;;;63.00;48.50;;;;;16.75;63.12;101081.88;146612;563;46014;-77
2021/11/22 07:25:37;;;;;;;;;85.33;80.33;;;;;17.11;61.85;101090.03;146613;792;46020;-75
2021/11/22 07:28:31;;;;;;;;;91.00;81.33;;;;;17.25;60.97;101086.09;146616;606;46035;-75
2021/11/22 07:31:23;;;;;;;;;71.25;60.00;;;;;17.27;60.79;101083.53;146625;597;46010;-75
2021/11/22 07:34:15;;;;;;;;;74.67;66.00;;;;;17.23;60.26;101082.56;146615;554;47012;-75
2021/11/22 07:37:08;;;;;;;;;68.50;53.00;;;;;16.74;60.55;101031.25;146614;581;46020;-82
2021/11/22 07:40:00;;;;;;;;;65.75;50.75;;;;;16.92;61.00;101095.56;146611;591;46016;-81
2021/11/22 07:42:56;;;;;;;;;75.50;58.25;;;;;16.87;62.09;101100.63;146613;607;46010;-84
2021/11/22 07:45:49;;;;;;;;;62.25;49.50;;;;;16.98;61.47;101093.12;146614;611;46016;-85
2021/11/22 07:48:41;;;;;;;;;60.25;46.25;;;;;17.13;62.03;101090.06;146615;569;45021;-85
2021/11/22 07:51:34;;;;;;;;;57.25;45.25;;;;;17.36;62.06;101086.44;146612;693;46016;-85
2021/11/22 07:54:26;;;;;;;;;61.25;49.50;;;;;17.61;61.75;101088.03;146611;576;47010;-85
2021/11/22 07:57:19;;;;;;;;;51.00;41.00;;;;;17.77;60.63;101086.75;146609;571;46912;-84
2021/11/22 08:00:14;;;;;;;;;47.25;37.25;;;;;17.72;59.57;101086.56;146616;569;46020;-83
2021/11/22 08:03:06;;;;;;;;;50.50;41.75;;;;;17.55;60.42;101085.22;146611;573;46017;-86
2021/11/22 08:05:59;;;;;;;;;52.25;40.75;;;;;17.33;60.16;101095.94;146619;571;46020;-84
2021/11/22 08:08:52;;;;;;;;;46.00;38.50;;;;;17.07;60.82;101101.25;146612;625;46016;-84
2021/11/22 08:15:13;;;;;;;;;49.00;40.25;;;;;17.00;62.84;101107.16;146612;618;46012;-86
2021/11/22 08:18:08;;;;;;;;;46.25;38.00;;;;;17.28;62.42;101103.66;146613;568;46021;-85
2021/11/22 08:21:01;;;;;;;;;44.50;36.50;;;;;17.63;61.76;101101.16;146611;569;46911;-85
2021/11/22 08:23:53;;;;;;;;;39.00;33.25;;;;;17.97;61.39;101103.94;146606;563;46916;-86
2021/11/22 08:26:45;;;;;;;;;41.25;35.00;;;;;18.27;60.21;101102.94;146610;598;46012;-85
2021/11/22 08:29:38;;;;;;;;;35.00;32.00;;;;;18.55;60.33;101108.91;146615;662;46020;-84
2021/11/22 08:32:30;;;;;;;;;46.00;38.25;;;;;18.80;59.68;101105.16;146613;565;46016;-86
2021/11/22 08:35:24;;;;;;;;;36.50;32.00;;;;;19.02;59.68;101103.94;146611;618;46021;-84
2021/11/22 08:38:16;;;;;;;;;45.25;37.75;;;;;19.23;59.40;101099.16;146612;571;46014;-84
2021/11/22 08:41:08;;;;;;;;;46.75;37.75;;;;;19.42;59.12;101095.19;146616;570;46021;-85
2021/11/22 08:44:01;;;;;;;;;48.00;37.00;;;;;19.65;57.87;101089.53;146612;656;47016;-83
2021/11/22 08:46:53;;;;;;;;;45.50;37.25;;;;;19.83;58.62;101090.78;146616;564;46021;-83
2021/11/22 08:49:58;;;;;;;;;45.75;37.25;;;;;20.00;58.42;101085.84;146613;609;46017;-85
2021/11/22 08:52:50;;;;;;;;;37.25;32.00;;;;;20.05;56.24;101083.28;146614;577;46020;-91
2021/11/22 08:55:43;;;;;;;;;47.00;35.50;;;;;19.82;57.26;101083.75;146612;592;46017;-80
2021/11/22 08:58:35;;;;;;;;;47.75;38.00;;;;;19.56;58.00;101087.56;146614;600;46020;-80
2021/11/22 09:01:27;;;;;;;;;47.00;38.25;;;;;19.30;58.29;101084.41;146608;601;46017;-84
2021/11/22 09:04:19;;;;;;;;;25.75;22.25;;;;;19.00;59.79;101088.09;146616;633;46033;-82
2021/11/22 09:07:11;;;;;;;;;48.50;38.50;;;;;18.76;60.74;101080.56;146612;626;46016;-83
2021/11/22 09:10:03;;;;;;;;;52.00;41.75;;;;;18.53;60.54;101071.22;146616;625;46020;-84
2021/11/22 09:12:56;;;;;;;;;53.00;40.75;;;;;18.34;60.67;101070.75;146615;563;46012;-83
2021/11/22 09:15:50;;;;;;;;;43.25;37.00;;;;;18.28;60.92;101083.72;146615;738;46010;-84
2021/11/22 09:18:42;;;;;;;;;45.25;37.50;;;;;18.19;62.07;101066.03;146615;613;46017;-82
2021/11/22 09:21:36;;;;;;;;;39.25;32.25;;;;;18.22;61.27;101058.22;146636;594;46020;-85
2021/11/22 09:24:28;;;;;;;;;29.50;25.50;;;;;18.22;61.52;101063.47;146613;595;46013;-83
2021/11/22 09:27:20;;;;;;;;;26.75;18.75;;;;;18.13;60.94;101057.06;146615;573;46010;-86
2021/11/22 09:30:13;;;;;;;;;17.75;16.75;;;;;17.98;60.26;101052.34;146613;595;46911;-85
2021/11/22 09:33:09;;;;;;;;;17.25;15.00;;;;;17.84;60.79;101049.34;146620;583;46014;-85
2021/11/22 09:36:01;;;;;;;;;27.25;22.25;;;;;17.70;62.05;101050.69;146613;577;46016;-84
2021/11/22 09:38:54;;;;;;;;;36.50;31.50;;;;;17.63;63.83;101053.97;146614;610;46020;-83
2021/11/22 09:41:48;;;;;;;;;29.00;26.75;;;;;17.57;63.94;101048.53;146614;624;46012;-84
2021/11/22 09:44:40;;;;;;;;;42.50;32.25;;;;;17.51;64.96;101047.53;146614;585;46014;-82
2021/11/22 09:47:33;;;;;;;;;45.25;36.75;;;;;17.45;65.33;101065.72;146609;653;46014;-82
2021/11/22 09:50:25;;;;;;;;;36.75;31.50;;;;;17.39;64.89;101070.78;146614;599;45585;-81
2021/11/22 09:53:19;;;;;;;;;40.25;32.50;;;;;17.31;65.18;101060.06;146614;574;46012;-82
2021/11/22 09:56:11;;;;;;;;;37.75;31.75;;;;;17.29;65.67;101055.66;146615;613;47012;-82
2021/11/22 09:59:05;;;;;;;;;33.25;26.75;;;;;17.29;65.69;101047.78;146616;641;47014;-81
2021/11/22 10:01:59;;;;;;;;;40.25;33.00;;;;;17.31;66.46;101056.56;146616;583;46021;-84
2021/11/22 10:04:51;;;;;;;;;35.00;30.25;;;;;17.34;66.27;101045.28;146611;690;46016;-84
2021/11/22 10:07:43;;;;;;;;;35.50;28.50;;;;;17.36;65.77;101046.22;146595;707;62010;-83
2021/11/22 10:10:42;;;;;;;;;40.00;33.25;;;;;17.39;66.02;101033.22;146614;598;45035;-83
2021/11/22 10:13:41;;;;;;;;;52.50;39.50;;;;;17.57;65.09;101038.06;146614;745;46010;-83
2021/11/22 10:16:34;;;;;;;;;54.00;43.75;;;;;17.78;65.62;101021.19;146610;603;46013;-82
2021/11/22 10:19:26;;;;;;;;;47.75;39.00;;;;;18.24;65.06;101021.50;146612;584;46020;-82
2021/11/22 10:22:22;;;;;;;;;47.75;38.50;;;;;18.74;63.55;101015.72;146613;575;46012;-82
2021/11/22 10:25:35;;;;;;;;;45.50;36.00;;;;;19.19;61.65;101020.16;146612;644;46021;-83
2021/11/22 10:28:36;;;;;;;;;50.25;39.75;;;;;19.45;60.47;101008.44;146611;595;46012;-81
2021/11/22 10:31:31;;;;;;;;;42.50;35.50;;;;;19.62;60.05;101000.88;146612;569;46021;-81
2021/11/22 10:34:23;;;;;;;;;48.00;39.25;;;;;19.77;59.55;101002.94;146611;576;46016;-82
2021/11/22 10:37:15;;;;;;;;;54.50;42.75;;;;;19.94;59.26;101014.66;146615;573;46010;-81
2021/11/22 10:40:23;;;;;;;;;55.25;43.75;;;;;20.12;59.35;101002.66;146613;592;46017;-83
2021/11/22 10:43:16;;;;;;;;;51.50;42.25;;;;;20.28;56.87;100994.19;146614;639;46020;-82
2021/11/22 10:46:13;;;;;;;;;48.50;40.75;;;;;20.47;56.78;101000.63;146610;572;47012;-79
2021/11/22 10:49:17;;;;;;;;;46.25;35.75;;;;;20.58;56.71;100995.53;146614;632;46010;-81
2021/11/22 10:52:35;;;;;;;;;42.00;34.50;;;;;20.49;57.63;101007.66;146614;576;46017;-81
2021/11/22 10:55:29;;;;;;;;;38.50;31.25;;;;;20.24;56.90;101003.75;146615;606;47010;-82
2021/11/22 10:58:41;;;;;;;;;32.75;29.00;;;;;19.87;57.58;101006.63;146615;580;46012;-82
2021/11/22 11:01:46;;;;;;;;;37.75;32.25;;;;;19.62;58.32;100995.63;146617;628;45021;-83
2021/11/22 11:04:41;;;;;;;;;34.75;29.75;;;;;19.41;59.23;100993.47;146613;583;46016;-81
2021/11/22 11:07:33;;;;;;;;;26.75;24.75;;;;;19.22;58.89;100999.19;146614;571;47010;-82
2021/11/22 11:10:33;;;;;;;;;28.50;25.25;;;;;19.04;60.32;100992.72;146611;588;46016;-80
2021/11/22 11:13:25;;;;;;;;;29.50;27.00;;;;;19.01;60.98;100983.91;146612;591;46020;-81
2021/11/22 11:16:18;;;;;;;;;28.00;25.00;;;;;18.97;60.72;100982.03;146610;625;46998;-83
2021/11/22 11:19:13;;;;;;;;;29.50;27.00;;;;;18.87;60.67;100987.09;146612;632;46020;-81
2021/11/22 11:22:06;;;;;;;;;27.75;26.00;;;;;18.74;62.02;100986.81;146609;621;46016;-82
2021/11/22 11:24:59;;;;;;;;;30.50;25.50;;;;;18.59;61.42;100987.31;146614;647;46020;-82
2021/11/22 11:27:51;;;;;;;;;34.00;28.25;;;;;18.46;61.83;100987.03;146611;565;46012;-80
2021/11/22 11:30:45;;;;;;;;;33.75;30.00;;;;;18.36;62.82;100987.66;146613;601;46020;-81
2021/11/22 11:33:37;;;;;;;;;20.25;19.00;;;;;18.33;62.47;100997.22;146613;611;46012;-80
2021/11/22 11:36:49;;;;;;;;;26.50;23.50;;;;;18.15;62.77;100971.41;146619;583;46010;-83
2021/11/22 11:40:22;;;;;;;;;25.00;24.00;;;;;18.35;63.09;101001.66;146612;625;46012;-80
2021/11/22 11:43:50;;;;;;;;;20.50;17.50;;;;;18.40;62.55;100989.50;146614;563;46010;-81
2021/11/22 11:47:26;;;;;;;;;19.25;17.75;;;;;16.62;62.08;100673.09;146617;730;46014;-80
2021/11/22 11:50:41;;;;;;;;;21.00;19.25;;;;;18.31;62.47;100983.16;146614;563;46010;-82
2021/11/22 11:53:33;;;;;;;;;18.25;17.25;;;;;18.21;62.36;100982.06;146616;566;46016;-81
2021/11/22 11:56:33;;;;;;;;;16.25;16.00;;;;;18.09;62.36;100980.00;146618;569;46014;-81
2021/11/22 11:59:41;;;;;;;;;16.00;16.00;;;;;17.97;62.23;100972.75;146617;578;46020;-80
2021/11/22 12:02:36;;;;;;;;;18.00;16.25;;;;;17.82;63.57;100974.06;146616;578;46020;-80
2021/11/22 12:05:55;;;;;;;;;18.25;16.75;;;;;17.80;62.97;100983.66;146605;564;47912;-81
2021/11/22 12:08:47;;;;;;;;;15.50;15.50;;;;;17.74;63.30;100986.97;146610;579;45021;-80
2021/11/22 12:11:39;;;;;;;;;14.75;13.00;;;;;16.76;63.56;100819.22;146605;572;46016;-79
2021/11/22 12:15:12;;;;;;;;;15.00;14.00;;;;;17.66;63.13;100986.78;146607;701;46020;-82
2021/11/22 12:18:12;;;;;;;;;18.75;15.25;;;;;17.59;63.12;100982.19;146577;579;71010;-80
2021/11/22 12:21:26;;;;;;;;;17.00;15.00;;;;;17.53;63.47;100989.87;146607;592;46010;-78
2021/11/22 12:24:19;;;;;;;;;17.50;14.50;;;;;17.45;63.24;100978.31;146605;577;46012;-81
2021/11/22 12:27:47;;;;;;;;;20.75;19.25;;;;;17.40;63.73;100982.53;146610;646;46020;-82
2021/11/22 12:30:48;;;;;;;;;12.25;11.00;;;;;17.29;64.42;100984.88;146605;623;46017;-82
2021/11/22 12:34:02;;;;;;;;;10.00;10.00;;;;;17.34;63.88;100996.37;146603;645;50010;-82
2021/11/22 12:36:54;;;;;;;;;12.67;12.67;;;;;17.32;64.69;100984.97;146608;670;46013;-82
2021/11/22 12:39:47;;;;;;;;;13.33;10.00;;;;;17.34;65.33;100987.62;146605;650;47010;-83
2021/11/22 12:43:00;;;;;;;;;11.00;11.00;;;;;17.32;64.27;100979.72;146606;695;46016;-82
2021/11/22 12:46:01;;;;;;;;;13.33;13.00;;;;;17.33;64.75;100978.00;146609;618;46010;-81
2021/11/22 12:48:56;;;;;;;;;14.25;14.25;;;;;17.34;64.88;100974.50;146605;565;46016;-82
2021/11/22 12:51:50;;;;;;;;;12.75;10.75;;;;;17.34;65.09;100978.00;146605;645;46021;-80
2021/11/22 12:55:00;;;;;;;;;10.50;10.50;;;;;16.48;64.88;100815.81;146607;563;46012;-84
2021/11/22 12:57:59;;;;;;;;;16.00;10.00;;;;;17.35;64.98;100976.28;146610;625;47010;-82
2021/11/22 13:00:52;;;;;;;;;12.50;11.75;;;;;17.34;65.01;100966.66;146599;595;50012;-83
2021/11/22 13:03:54;;;;;;;;;14.25;12.00;;;;;17.35;64.39;100973.66;146606;661;48010;-82
2021/11/22 13:06:47;;;;;;;;;15.50;11.00;;;;;17.37;65.49;100977.22;146605;569;46012;-81
2021/11/22 13:09:43;;;;;;;;;14.25;13.00;;;;;17.39;65.11;100968.56;146608;607;46010;-81
2021/11/22 13:12:46;;;;;;;;;14.00;14.00;;;;;17.38;64.78;100968.50;146606;564;46016;-83
2021/11/22 13:15:54;;;;;;;;;14.50;12.75;;;;;17.36;65.16;100984.19;146609;604;46010;-82
2021/11/22 13:19:01;;;;;;;;;13.25;12.25;;;;;17.33;64.28;100981.50;146606;644;46012;-83
2021/11/22 13:22:01;;;;;;;;;14.75;14.50;;;;;17.28;63.68;100980.47;146606;635;46021;-82
2021/11/22 13:24:53;;;;;;;;;17.75;17.00;;;;;17.27;64.58;100981.31;146606;627;46016;-82